sensor_id;sensor_type;location;lat;lon;timestamp;noise_LAeq;noise_LA_min;noise_LA_max;noise_LA01;noise_LA95
61321;Laerm;17737;52.586;13.284;2022-09-16T00:00:52;41.94;40.06;47.03;;
61321;Laerm;17737;52.586;13.284;2022-09-16T00:03:22;41.95;40.14;48.60;;
61321;Laerm;17737;52.586;13.284;2022-09-16T00:05:51;42.20;39.98;48.53;;
61321;Laerm;17737;52.586;13.284;2022-09-16T00:08:19;42.51;39.89;48.44;;
61321;Laerm;17737;52.586;13.284;2022-09-16T00:10:48;55.77;40.75;71.45;;
61321;Laerm;17737;52.586;13.284;2022-09-16T00:13:17;50.41;40.22;64.78;;
61321;Laerm;17737;52.586;13.284;2022-09-16T00:15:46;41.85;39.98;45.40;;
61321;Laerm;17737;52.586;13.284;2022-09-16T00:18:16;42.24;40.14;45.48;;
61321;Laerm;17737;52.586;13.284;2022-09-16T00:20:49;41.84;39.89;46.16;;
61321;Laerm;17737;52.586;13.284;2022-09-16T00:23:18;59.56;39.98;80.88;;
61321;Laerm;17737;52.586;13.284;2022-09-16T00:25:49;42.06;40.06;47.77;;
61321;Laerm;17737;52.586;13.284;2022-09-16T00:28:18;41.98;39.98;45.55;;
61321;Laerm;17737;52.586;13.284;2022-09-16T00:30:47;41.86;39.80;45.59;;
61321;Laerm;17737;52.586;13.284;2022-09-16T00:33:16;41.74;39.89;45.52;;
61321;Laerm;17737;52.586;13.284;2022-09-16T00:35:44;42.20;40.06;45.80;;
61321;Laerm;17737;52.586;13.284;2022-09-16T00:38:13;55.88;40.06;69.37;;
61321;Laerm;17737;52.586;13.284;2022-09-16T00:40:45;41.84;40.06;45.71;;
61321;Laerm;17737;52.586;13.284;2022-09-16T00:43:13;50.91;40.38;66.50;;
61321;Laerm;17737;52.586;13.284;2022-09-16T00:45:43;42.67;40.48;47.13;;
61321;Laerm;17737;52.586;13.284;2022-09-16T00:48:15;42.12;40.22;46.00;;
61321;Laerm;17737;52.586;13.284;2022-09-16T00:50:47;51.58;40.53;68.07;;
61321;Laerm;17737;52.586;13.284;2022-09-16T00:53:24;45.13;39.98;59.19;;
61321;Laerm;17737;52.586;13.284;2022-09-16T00:55:55;50.33;40.06;65.43;;
61321;Laerm;17737;52.586;13.284;2022-09-16T00:58:32;49.32;40.22;65.02;;
61321;Laerm;17737;52.586;13.284;2022-09-16T01:01:03;42.16;39.89;45.40;;
61321;Laerm;17737;52.586;13.284;2022-09-16T01:03:37;46.04;40.38;59.08;;
61321;Laerm;17737;52.586;13.284;2022-09-16T01:06:07;42.41;40.22;51.09;;
61321;Laerm;17737;52.586;13.284;2022-09-16T01:08:37;46.93;39.98;60.00;;
61321;Laerm;17737;52.586;13.284;2022-09-16T01:11:05;43.39;40.06;52.68;;
61321;Laerm;17737;52.586;13.284;2022-09-16T01:13:33;42.41;40.14;45.95;;
61321;Laerm;17737;52.586;13.284;2022-09-16T01:16:06;42.77;40.22;47.15;;
61321;Laerm;17737;52.586;13.284;2022-09-16T01:18:41;42.37;40.38;50.14;;
61321;Laerm;17737;52.586;13.284;2022-09-16T01:21:24;47.87;40.61;62.03;;
61321;Laerm;17737;52.586;13.284;2022-09-16T01:24:35;45.99;40.30;58.21;;
61321;Laerm;17737;52.586;13.284;2022-09-16T01:27:38;42.13;40.22;45.45;;
61321;Laerm;17737;52.586;13.284;2022-09-16T01:33:16;43.82;40.41;50.21;;
61321;Laerm;17737;52.586;13.284;2022-09-16T01:35:59;42.40;39.62;49.89;;
61321;Laerm;17737;52.586;13.284;2022-09-16T01:38:43;42.01;39.98;45.66;;
61321;Laerm;17737;52.586;13.284;2022-09-16T01:41:19;42.49;39.98;46.59;;
61321;Laerm;17737;52.586;13.284;2022-09-16T01:43:58;42.16;40.06;45.35;;
61321;Laerm;17737;52.586;13.284;2022-09-16T01:46:35;50.31;40.30;65.33;;
61321;Laerm;17737;52.586;13.284;2022-09-16T01:49:16;46.03;40.14;58.06;;
61321;Laerm;17737;52.586;13.284;2022-09-16T01:51:52;43.11;40.14;51.06;;
61321;Laerm;17737;52.586;13.284;2022-09-16T01:54:25;43.43;40.30;51.99;;
61321;Laerm;17737;52.586;13.284;2022-09-16T01:57:00;48.69;40.22;63.13;;
61321;Laerm;17737;52.586;13.284;2022-09-16T01:59:35;52.26;40.30;69.91;;
61321;Laerm;17737;52.586;13.284;2022-09-16T02:02:10;42.92;40.38;47.74;;
61321;Laerm;17737;52.586;13.284;2022-09-16T02:04:47;42.84;39.98;47.66;;
61321;Laerm;17737;52.586;13.284;2022-09-16T02:07:19;43.08;40.30;50.37;;
61321;Laerm;17737;52.586;13.284;2022-09-16T02:09:50;42.37;40.14;47.67;;
61321;Laerm;17737;52.586;13.284;2022-09-16T02:12:24;55.12;40.89;69.86;;
61321;Laerm;17737;52.586;13.284;2022-09-16T02:14:58;47.38;40.06;60.80;;
61321;Laerm;17737;52.586;13.284;2022-09-16T02:17:31;53.26;40.61;67.13;;
61321;Laerm;17737;52.586;13.284;2022-09-16T02:20:07;42.38;39.80;47.45;;
61321;Laerm;17737;52.586;13.284;2022-09-16T02:22:39;49.63;41.03;62.82;;
61321;Laerm;17737;52.586;13.284;2022-09-16T02:25:09;42.76;40.30;48.72;;
61321;Laerm;17737;52.586;13.284;2022-09-16T02:27:39;43.68;40.53;51.78;;
61321;Laerm;17737;52.586;13.284;2022-09-16T02:30:11;42.94;40.75;47.73;;
61321;Laerm;17737;52.586;13.284;2022-09-16T02:32:44;50.67;40.68;65.40;;
61321;Laerm;17737;52.586;13.284;2022-09-16T02:35:16;50.95;41.03;65.29;;
61321;Laerm;17737;52.586;13.284;2022-09-16T02:37:48;49.96;40.38;62.31;;
61321;Laerm;17737;52.586;13.284;2022-09-16T02:40:19;52.11;40.14;65.43;;
61321;Laerm;17737;52.586;13.284;2022-09-16T02:42:50;41.62;39.80;45.13;;
61321;Laerm;17737;52.586;13.284;2022-09-16T02:45:22;41.63;39.71;51.95;;
61321;Laerm;17737;52.586;13.284;2022-09-16T02:47:58;51.58;39.89;66.02;;
61321;Laerm;17737;52.586;13.284;2022-09-16T02:50:38;42.48;39.80;50.56;;
61321;Laerm;17737;52.586;13.284;2022-09-16T02:53:12;54.49;39.80;68.11;;
61321;Laerm;17737;52.586;13.284;2022-09-16T02:55:51;50.40;41.22;61.42;;
61321;Laerm;17737;52.586;13.284;2022-09-16T02:58:20;43.67;40.06;51.74;;
61321;Laerm;17737;52.586;13.284;2022-09-16T03:00:51;47.98;40.14;62.35;;
61321;Laerm;17737;52.586;13.284;2022-09-16T03:03:20;45.65;40.22;57.58;;
61321;Laerm;17737;52.586;13.284;2022-09-16T03:06:09;54.54;40.89;66.16;;
61321;Laerm;17737;52.586;13.284;2022-09-16T03:08:37;49.57;39.98;62.09;;
61321;Laerm;17737;52.586;13.284;2022-09-16T03:11:17;54.51;41.59;64.71;;
61321;Laerm;17737;52.586;13.284;2022-09-16T03:14:07;51.98;40.22;63.85;;
61321;Laerm;17737;52.586;13.284;2022-09-16T03:16:48;46.77;40.61;57.89;;
61321;Laerm;17737;52.586;13.284;2022-09-16T03:19:26;54.71;41.29;65.23;;
61321;Laerm;17737;52.586;13.284;2022-09-16T03:22:05;58.33;42.34;68.72;;
61321;Laerm;17737;52.586;13.284;2022-09-16T03:24:44;58.49;41.76;67.13;;
61321;Laerm;17737;52.586;13.284;2022-09-16T03:27:18;56.79;41.71;67.89;;
61321;Laerm;17737;52.586;13.284;2022-09-16T03:29:51;55.93;41.76;67.25;;
61321;Laerm;17737;52.586;13.284;2022-09-16T03:32:23;54.88;41.22;68.35;;
61321;Laerm;17737;52.586;13.284;2022-09-16T03:34:59;58.87;42.77;67.87;;
61321;Laerm;17737;52.586;13.284;2022-09-16T03:37:32;57.01;42.77;68.08;;
61321;Laerm;17737;52.586;13.284;2022-09-16T03:40:05;56.94;41.22;68.89;;
61321;Laerm;17737;52.586;13.284;2022-09-16T03:42:37;54.83;41.47;67.49;;
61321;Laerm;17737;52.586;13.284;2022-09-16T03:45:06;57.11;41.16;71.81;;
61321;Laerm;17737;52.586;13.284;2022-09-16T03:47:34;56.79;43.23;67.71;;
61321;Laerm;17737;52.586;13.284;2022-09-16T03:50:02;55.57;41.71;67.02;;
61321;Laerm;17737;52.586;13.284;2022-09-16T03:52:31;58.22;45.33;68.16;;
61321;Laerm;17737;52.586;13.284;2022-09-16T03:54:59;59.72;45.05;70.33;;
61321;Laerm;17737;52.586;13.284;2022-09-16T03:57:26;52.77;40.75;67.57;;
61321;Laerm;17737;52.586;13.284;2022-09-16T03:59:55;58.76;41.29;70.68;;
61321;Laerm;17737;52.586;13.284;2022-09-16T04:02:23;57.12;41.65;68.36;;
61321;Laerm;17737;52.586;13.284;2022-09-16T04:04:51;58.07;41.53;68.31;;
61321;Laerm;17737;52.586;13.284;2022-09-16T04:07:19;54.34;40.82;65.41;;
61321;Laerm;17737;52.586;13.284;2022-09-16T04:09:48;57.28;42.39;70.65;;
61321;Laerm;17737;52.586;13.284;2022-09-16T04:12:15;57.71;41.16;66.65;;
61321;Laerm;17737;52.586;13.284;2022-09-16T04:14:43;59.87;42.58;67.57;;
61321;Laerm;17737;52.586;13.284;2022-09-16T04:17:11;58.06;42.77;68.09;;
61321;Laerm;17737;52.586;13.284;2022-09-16T04:19:39;60.63;45.38;68.15;;
61321;Laerm;17737;52.586;13.284;2022-09-16T04:22:06;60.14;46.06;69.77;;
61321;Laerm;17737;52.586;13.284;2022-09-16T04:24:34;60.27;45.35;71.17;;
61321;Laerm;17737;52.586;13.284;2022-09-16T04:27:03;60.78;44.07;71.62;;
61321;Laerm;17737;52.586;13.284;2022-09-16T04:29:31;60.69;43.76;70.60;;
61321;Laerm;17737;52.586;13.284;2022-09-16T04:31:59;57.36;41.65;67.52;;
61321;Laerm;17737;52.586;13.284;2022-09-16T04:34:26;57.19;41.93;71.74;;
61321;Laerm;17737;52.586;13.284;2022-09-16T04:36:54;57.42;43.03;67.85;;
61321;Laerm;17737;52.586;13.284;2022-09-16T04:39:22;57.66;41.82;68.02;;
61321;Laerm;17737;52.586;13.284;2022-09-16T04:41:49;59.00;41.35;68.11;;
61321;Laerm;17737;52.586;13.284;2022-09-16T04:44:19;60.89;46.08;69.25;;
61321;Laerm;17737;52.586;13.284;2022-09-16T04:46:47;57.68;44.39;68.51;;
61321;Laerm;17737;52.586;13.284;2022-09-16T04:49:15;60.49;41.65;71.07;;
61321;Laerm;17737;52.586;13.284;2022-09-16T04:51:43;56.63;42.34;68.43;;
61321;Laerm;17737;52.586;13.284;2022-09-16T04:54:11;60.79;42.34;72.14;;
61321;Laerm;17737;52.586;13.284;2022-09-16T04:56:38;57.62;44.60;67.47;;
61321;Laerm;17737;52.586;13.284;2022-09-16T04:59:06;59.20;42.81;67.52;;
61321;Laerm;17737;52.586;13.284;2022-09-16T05:01:37;57.47;42.44;67.82;;
61321;Laerm;17737;52.586;13.284;2022-09-16T05:04:06;60.63;43.31;72.43;;
61321;Laerm;17737;52.586;13.284;2022-09-16T05:06:37;62.89;46.18;74.02;;
61321;Laerm;17737;52.586;13.284;2022-09-16T05:09:06;60.94;43.94;69.99;;
61321;Laerm;17737;52.586;13.284;2022-09-16T05:11:36;60.41;44.20;68.18;;
61321;Laerm;17737;52.586;13.284;2022-09-16T05:14:06;58.54;44.33;69.17;;
61321;Laerm;17737;52.586;13.284;2022-09-16T05:16:35;59.98;44.04;68.13;;
61321;Laerm;17737;52.586;13.284;2022-09-16T05:19:03;59.50;42.86;70.79;;
61321;Laerm;17737;52.586;13.284;2022-09-16T05:21:33;60.67;44.69;69.13;;
61321;Laerm;17737;52.586;13.284;2022-09-16T05:24:03;60.54;45.36;70.71;;
61321;Laerm;17737;52.586;13.284;2022-09-16T05:26:33;59.58;44.01;68.29;;
61321;Laerm;17737;52.586;13.284;2022-09-16T05:29:03;60.41;44.07;73.00;;
61321;Laerm;17737;52.586;13.284;2022-09-16T05:31:32;59.51;44.57;70.18;;
61321;Laerm;17737;52.586;13.284;2022-09-16T05:34:03;61.18;42.77;69.08;;
61321;Laerm;17737;52.586;13.284;2022-09-16T05:36:33;60.15;43.87;68.37;;
61321;Laerm;17737;52.586;13.284;2022-09-16T05:39:03;61.20;43.62;74.12;;
61321;Laerm;17737;52.586;13.284;2022-09-16T05:41:49;60.02;43.27;68.25;;
61321;Laerm;17737;52.586;13.284;2022-09-16T05:44:17;61.16;44.20;79.05;;
61321;Laerm;17737;52.586;13.284;2022-09-16T05:46:44;60.74;47.51;67.69;;
61321;Laerm;17737;52.586;13.284;2022-09-16T05:49:13;60.43;44.51;68.04;;
61321;Laerm;17737;52.586;13.284;2022-09-16T05:51:46;60.62;43.80;69.89;;
61321;Laerm;17737;52.586;13.284;2022-09-16T05:54:14;60.18;46.12;67.91;;
61321;Laerm;17737;52.586;13.284;2022-09-16T05:56:47;59.18;45.76;69.38;;
61321;Laerm;17737;52.586;13.284;2022-09-16T05:59:15;59.64;44.57;67.72;;
61321;Laerm;17737;52.586;13.284;2022-09-16T06:01:44;59.51;46.02;69.15;;
61321;Laerm;17737;52.586;13.284;2022-09-16T06:04:15;60.73;44.80;67.76;;
61321;Laerm;17737;52.586;13.284;2022-09-16T06:06:44;61.60;47.48;72.44;;
61321;Laerm;17737;52.586;13.284;2022-09-16T06:09:14;61.34;51.83;71.84;;
61321;Laerm;17737;52.586;13.284;2022-09-16T06:11:43;66.15;54.49;82.98;;
61321;Laerm;17737;52.586;13.284;2022-09-16T06:14:12;60.30;45.30;70.16;;
61321;Laerm;17737;52.586;13.284;2022-09-16T06:16:40;61.21;47.90;69.05;;
61321;Laerm;17737;52.586;13.284;2022-09-16T06:19:12;60.30;43.54;71.02;;
61321;Laerm;17737;52.586;13.284;2022-09-16T06:21:42;59.42;44.17;66.61;;
61321;Laerm;17737;52.586;13.284;2022-09-16T06:24:11;59.68;47.26;69.32;;
61321;Laerm;17737;52.586;13.284;2022-09-16T06:26:40;59.18;43.27;68.66;;
61321;Laerm;17737;52.586;13.284;2022-09-16T06:29:09;59.06;42.34;68.67;;
61321;Laerm;17737;52.586;13.284;2022-09-16T06:31:37;60.24;46.34;71.91;;
61321;Laerm;17737;52.586;13.284;2022-09-16T06:34:06;61.69;45.07;71.01;;
61321;Laerm;17737;52.586;13.284;2022-09-16T06:36:36;63.03;44.83;75.01;;
61321;Laerm;17737;52.586;13.284;2022-09-16T06:39:12;59.45;46.63;71.56;;
61321;Laerm;17737;52.586;13.284;2022-09-16T06:41:41;59.97;46.44;68.46;;
61321;Laerm;17737;52.586;13.284;2022-09-16T06:44:08;59.73;43.83;68.65;;
61321;Laerm;17737;52.586;13.284;2022-09-16T06:46:36;61.28;47.29;70.62;;
61321;Laerm;17737;52.586;13.284;2022-09-16T06:49:04;60.38;46.06;73.97;;
61321;Laerm;17737;52.586;13.284;2022-09-16T06:51:33;61.64;48.82;78.47;;
61321;Laerm;17737;52.586;13.284;2022-09-16T06:54:03;67.15;59.09;81.67;;
61321;Laerm;17737;52.586;13.284;2022-09-16T06:56:33;60.46;46.12;75.37;;
61321;Laerm;17737;52.586;13.284;2022-09-16T06:59:02;54.01;42.24;64.94;;
61321;Laerm;17737;52.586;13.284;2022-09-16T07:01:30;57.51;42.58;66.79;;
61321;Laerm;17737;52.586;13.284;2022-09-16T07:04:01;59.95;44.45;71.87;;
61321;Laerm;17737;52.586;13.284;2022-09-16T07:06:31;59.96;43.97;70.61;;
61321;Laerm;17737;52.586;13.284;2022-09-16T07:09:19;58.93;45.28;72.10;;
61321;Laerm;17737;52.586;13.284;2022-09-16T07:11:48;59.87;50.90;69.36;;
61321;Laerm;17737;52.586;13.284;2022-09-16T07:14:16;58.61;45.97;66.61;;
61321;Laerm;17737;52.586;13.284;2022-09-16T07:16:44;59.20;42.77;68.71;;
61321;Laerm;17737;52.586;13.284;2022-09-16T07:19:12;59.61;46.76;69.13;;
61321;Laerm;17737;52.586;13.284;2022-09-16T07:21:39;60.23;44.83;71.14;;
61321;Laerm;17737;52.586;13.284;2022-09-16T07:24:09;58.46;45.30;71.32;;
61321;Laerm;17737;52.586;13.284;2022-09-16T07:26:39;58.69;42.04;72.20;;
61321;Laerm;17737;52.586;13.284;2022-09-16T07:29:11;57.03;42.99;65.57;;
61321;Laerm;17737;52.586;13.284;2022-09-16T07:31:39;58.97;43.83;68.37;;
61321;Laerm;17737;52.586;13.284;2022-09-16T07:34:09;57.68;45.82;66.43;;
61321;Laerm;17737;52.586;13.284;2022-09-16T07:36:39;58.82;43.11;67.24;;
61321;Laerm;17737;52.586;13.284;2022-09-16T07:39:07;57.65;42.99;66.97;;
61321;Laerm;17737;52.586;13.284;2022-09-16T07:41:37;59.93;47.43;70.37;;
61321;Laerm;17737;52.586;13.284;2022-09-16T07:44:09;56.00;42.54;66.14;;
61321;Laerm;17737;52.586;13.284;2022-09-16T07:46:37;53.96;42.81;63.08;;
61321;Laerm;17737;52.586;13.284;2022-09-16T07:49:07;55.83;43.39;67.63;;
61321;Laerm;17737;52.586;13.284;2022-09-16T07:51:35;58.33;43.54;67.00;;
61321;Laerm;17737;52.586;13.284;2022-09-16T07:54:05;81.31;44.36;100.46;;
61321;Laerm;17737;52.586;13.284;2022-09-16T07:56:36;60.08;43.69;72.83;;
61321;Laerm;17737;52.586;13.284;2022-09-16T07:59:06;59.82;43.23;74.07;;
61321;Laerm;17737;52.586;13.284;2022-09-16T08:01:35;57.10;45.15;65.94;;
61321;Laerm;17737;52.586;13.284;2022-09-16T08:04:09;60.00;45.84;70.91;;
61321;Laerm;17737;52.586;13.284;2022-09-16T08:06:38;58.41;45.33;74.12;;
61321;Laerm;17737;52.586;13.284;2022-09-16T08:09:06;57.26;45.64;71.70;;
61321;Laerm;17737;52.586;13.284;2022-09-16T08:11:54;57.63;43.15;67.44;;
61321;Laerm;17737;52.586;13.284;2022-09-16T08:14:22;57.33;43.58;67.26;;
61321;Laerm;17737;52.586;13.284;2022-09-16T08:16:51;58.17;42.29;66.94;;
61321;Laerm;17737;52.586;13.284;2022-09-16T08:19:19;59.47;42.54;67.59;;
61321;Laerm;17737;52.586;13.284;2022-09-16T08:21:48;60.20;42.99;74.39;;
61321;Laerm;17737;52.586;13.284;2022-09-16T08:24:15;61.12;45.33;70.01;;
61321;Laerm;17737;52.586;13.284;2022-09-16T08:26:43;59.17;43.58;69.07;;
61321;Laerm;17737;52.586;13.284;2022-09-16T08:29:11;58.40;43.51;68.75;;
61321;Laerm;17737;52.586;13.284;2022-09-16T08:31:39;59.78;42.63;72.74;;
61321;Laerm;17737;52.586;13.284;2022-09-16T08:34:09;58.80;44.66;67.95;;
61321;Laerm;17737;52.586;13.284;2022-09-16T08:36:36;60.43;44.17;76.22;;
61321;Laerm;17737;52.586;13.284;2022-09-16T08:39:05;60.05;45.62;67.57;;
61321;Laerm;17737;52.586;13.284;2022-09-16T08:41:47;59.71;47.73;70.07;;
61321;Laerm;17737;52.586;13.284;2022-09-16T08:44:26;57.17;44.99;68.45;;
61321;Laerm;17737;52.586;13.284;2022-09-16T08:47:00;60.81;45.84;69.06;;
61321;Laerm;17737;52.586;13.284;2022-09-16T08:49:33;60.75;46.83;68.85;;
61321;Laerm;17737;52.586;13.284;2022-09-16T08:52:09;57.23;44.45;66.01;;
61321;Laerm;17737;52.586;13.284;2022-09-16T08:54:41;58.41;42.09;69.09;;
61321;Laerm;17737;52.586;13.284;2022-09-16T08:57:14;60.10;44.60;70.53;;
61321;Laerm;17737;52.586;13.284;2022-09-16T08:59:47;58.98;48.15;68.16;;
61321;Laerm;17737;52.586;13.284;2022-09-16T09:02:27;60.83;46.72;77.33;;
61321;Laerm;17737;52.586;13.284;2022-09-16T09:05:00;58.95;47.20;77.63;;
61321;Laerm;17737;52.586;13.284;2022-09-16T09:07:38;57.58;43.94;67.99;;
61321;Laerm;17737;52.586;13.284;2022-09-16T09:10:18;57.07;43.51;67.92;;
61321;Laerm;17737;52.586;13.284;2022-09-16T09:12:55;59.44;45.28;72.35;;
61321;Laerm;17737;52.586;13.284;2022-09-16T09:15:35;59.91;47.63;67.67;;
61321;Laerm;17737;52.586;13.284;2022-09-16T09:18:17;59.06;45.80;67.69;;
61321;Laerm;17737;52.586;13.284;2022-09-16T09:20:53;60.08;44.63;73.42;;
61321;Laerm;17737;52.586;13.284;2022-09-16T09:23:46;61.89;46.75;80.77;;
61321;Laerm;17737;52.586;13.284;2022-09-16T09:26:21;61.78;45.35;74.24;;
61321;Laerm;17737;52.586;13.284;2022-09-16T09:29:10;61.84;44.01;79.75;;
61321;Laerm;17737;52.586;13.284;2022-09-16T09:31:49;61.03;43.51;74.00;;
61321;Laerm;17737;52.586;13.284;2022-09-16T09:34:33;57.82;44.97;65.98;;
61321;Laerm;17737;52.586;13.284;2022-09-16T09:37:29;58.77;44.11;70.82;;
61321;Laerm;17737;52.586;13.284;2022-09-16T09:40:10;59.65;46.68;68.89;;
61321;Laerm;17737;52.586;13.284;2022-09-16T09:42:43;59.59;44.01;72.65;;
61321;Laerm;17737;52.586;13.284;2022-09-16T09:45:18;60.74;46.88;78.40;;
61321;Laerm;17737;52.586;13.284;2022-09-16T09:47:51;58.29;44.27;67.59;;
61321;Laerm;17737;52.586;13.284;2022-09-16T09:50:26;56.98;43.19;66.29;;
61321;Laerm;17737;52.586;13.284;2022-09-16T09:53:07;60.23;46.20;72.56;;
61321;Laerm;17737;52.586;13.284;2022-09-16T09:55:40;57.94;44.77;69.76;;
61321;Laerm;17737;52.586;13.284;2022-09-16T09:58:16;81.59;42.90;100.64;;
61321;Laerm;17737;52.586;13.284;2022-09-16T10:00:46;77.74;46.40;98.16;;
61321;Laerm;17737;52.586;13.284;2022-09-16T10:03:16;58.37;48.11;68.36;;
61321;Laerm;17737;52.586;13.284;2022-09-16T10:05:46;57.18;45.15;67.83;;
61321;Laerm;17737;52.586;13.284;2022-09-16T10:08:22;60.41;43.80;86.34;;
61321;Laerm;17737;52.586;13.284;2022-09-16T10:10:52;57.93;45.23;67.11;;
61321;Laerm;17737;52.586;13.284;2022-09-16T10:13:22;59.74;44.39;70.77;;
61321;Laerm;17737;52.586;13.284;2022-09-16T10:16:04;59.86;45.52;68.28;;
61321;Laerm;17737;52.586;13.284;2022-09-16T10:18:33;59.39;44.97;68.00;;
61321;Laerm;17737;52.586;13.284;2022-09-16T10:21:04;60.81;44.57;70.43;;
61321;Laerm;17737;52.586;13.284;2022-09-16T10:23:35;56.86;43.83;67.17;;
61321;Laerm;17737;52.586;13.284;2022-09-16T10:26:13;59.53;44.69;71.40;;
61321;Laerm;17737;52.586;13.284;2022-09-16T10:28:56;58.60;45.43;67.20;;
61321;Laerm;17737;52.586;13.284;2022-09-16T10:31:28;59.77;46.83;71.12;;
61321;Laerm;17737;52.586;13.284;2022-09-16T10:34:01;57.80;47.63;66.79;;
61321;Laerm;17737;52.586;13.284;2022-09-16T10:36:33;68.63;48.20;84.50;;
61321;Laerm;17737;52.586;13.284;2022-09-16T10:39:03;58.36;47.52;66.17;;
61321;Laerm;17737;52.586;13.284;2022-09-16T10:41:33;60.82;50.31;73.90;;
61321;Laerm;17737;52.586;13.284;2022-09-16T10:44:13;59.93;49.00;71.30;;
61321;Laerm;17737;52.586;13.284;2022-09-16T10:46:49;58.84;44.66;69.20;;
61321;Laerm;17737;52.586;13.284;2022-09-16T10:49:21;59.07;45.93;65.83;;
61321;Laerm;17737;52.586;13.284;2022-09-16T10:51:49;57.63;46.67;68.10;;
61321;Laerm;17737;52.586;13.284;2022-09-16T10:54:26;59.89;46.02;72.61;;
61321;Laerm;17737;52.586;13.284;2022-09-16T10:56:54;60.52;46.72;73.51;;
61321;Laerm;17737;52.586;13.284;2022-09-16T10:59:21;58.11;42.99;67.10;;
61321;Laerm;17737;52.586;13.284;2022-09-16T11:01:58;59.44;45.25;70.01;;
61321;Laerm;17737;52.586;13.284;2022-09-16T11:04:55;60.31;45.73;72.06;;
61321;Laerm;17737;52.586;13.284;2022-09-16T11:07:35;57.85;43.65;67.14;;
61321;Laerm;17737;52.586;13.284;2022-09-16T11:10:14;60.22;42.54;69.48;;
61321;Laerm;17737;52.586;13.284;2022-09-16T11:12:58;80.07;42.19;100.38;;
61321;Laerm;17737;52.586;13.284;2022-09-16T11:15:40;60.26;46.52;72.62;;
61321;Laerm;17737;52.586;13.284;2022-09-16T11:18:24;61.35;47.13;72.56;;
61321;Laerm;17737;52.586;13.284;2022-09-16T11:21:13;59.81;46.59;70.86;;
61321;Laerm;17737;52.586;13.284;2022-09-16T11:23:58;60.75;47.63;69.64;;
61321;Laerm;17737;52.586;13.284;2022-09-16T11:26:40;60.26;46.08;67.33;;
61321;Laerm;17737;52.586;13.284;2022-09-16T11:29:23;58.47;43.19;65.84;;
61321;Laerm;17737;52.586;13.284;2022-09-16T11:32:04;60.65;44.48;70.20;;
61321;Laerm;17737;52.586;13.284;2022-09-16T11:34:46;63.17;46.12;77.80;;
61321;Laerm;17737;52.586;13.284;2022-09-16T11:37:25;57.16;44.28;65.18;;
61321;Laerm;17737;52.586;13.284;2022-09-16T11:40:04;58.85;44.17;68.76;;
61321;Laerm;17737;52.586;13.284;2022-09-16T11:42:41;60.06;45.65;68.42;;
61321;Laerm;17737;52.586;13.284;2022-09-16T11:45:22;58.74;44.48;75.60;;
61321;Laerm;17737;52.586;13.284;2022-09-16T11:48:03;59.03;43.51;68.26;;
61321;Laerm;17737;52.586;13.284;2022-09-16T11:50:44;61.89;44.11;76.57;;
61321;Laerm;17737;52.586;13.284;2022-09-16T11:56:29;60.11;44.33;72.37;;
61321;Laerm;17737;52.586;13.284;2022-09-16T11:59:10;58.76;45.48;69.75;;
61321;Laerm;17737;52.586;13.284;2022-09-16T12:01:42;63.41;49.40;75.72;;
61321;Laerm;17737;52.586;13.284;2022-09-16T12:04:16;58.08;43.76;68.55;;
61321;Laerm;17737;52.586;13.284;2022-09-16T12:06:53;61.74;48.80;71.14;;
61321;Laerm;17737;52.586;13.284;2022-09-16T12:09:27;62.16;48.04;76.39;;
61321;Laerm;17737;52.586;13.284;2022-09-16T12:12:05;58.27;44.97;64.81;;
61321;Laerm;17737;52.586;13.284;2022-09-16T12:14:41;60.28;44.45;68.18;;
61321;Laerm;17737;52.586;13.284;2022-09-16T12:17:15;58.91;45.05;70.19;;
61321;Laerm;17737;52.586;13.284;2022-09-16T12:19:49;62.47;48.52;72.82;;
61321;Laerm;17737;52.586;13.284;2022-09-16T12:22:22;59.48;45.84;69.35;;
61321;Laerm;17737;52.586;13.284;2022-09-16T12:24:56;61.37;44.63;71.82;;
61321;Laerm;17737;52.586;13.284;2022-09-16T12:27:36;61.17;45.77;70.12;;
61321;Laerm;17737;52.586;13.284;2022-09-16T12:30:13;59.41;47.84;70.18;;
61321;Laerm;17737;52.586;13.284;2022-09-16T12:32:49;60.73;47.73;66.98;;
61321;Laerm;17737;52.586;13.284;2022-09-16T12:35:23;61.29;47.48;70.94;;
61321;Laerm;17737;52.586;13.284;2022-09-16T12:37:53;60.36;47.96;67.97;;
61321;Laerm;17737;52.586;13.284;2022-09-16T12:40:25;61.96;48.63;72.42;;
61321;Laerm;17737;52.586;13.284;2022-09-16T12:43:13;60.57;45.23;69.08;;
61321;Laerm;17737;52.586;13.284;2022-09-16T12:46:00;61.07;46.16;69.01;;
61321;Laerm;17737;52.586;13.284;2022-09-16T12:48:47;61.93;44.45;74.56;;
61321;Laerm;17737;52.586;13.284;2022-09-16T12:51:42;60.39;44.51;77.80;;
61321;Laerm;17737;52.586;13.284;2022-09-16T12:54:30;70.40;48.56;92.96;;
61321;Laerm;17737;52.586;13.284;2022-09-16T12:57:29;62.02;51.22;69.70;;
61321;Laerm;17737;52.586;13.284;2022-09-16T13:00:11;62.77;46.08;78.14;;
61321;Laerm;17737;52.586;13.284;2022-09-16T13:02:44;61.93;48.74;72.98;;
61321;Laerm;17737;52.586;13.284;2022-09-16T13:05:20;60.41;46.36;70.79;;
61321;Laerm;17737;52.586;13.284;2022-09-16T13:07:55;60.47;45.13;70.72;;
61321;Laerm;17737;52.586;13.284;2022-09-16T13:10:29;62.75;47.96;76.93;;
61321;Laerm;17737;52.586;13.284;2022-09-16T13:13:24;60.64;47.84;67.34;;
61321;Laerm;17737;52.586;13.284;2022-09-16T13:15:55;55.44;45.71;63.16;;
61321;Laerm;17737;52.586;13.284;2022-09-16T13:18:39;60.92;48.63;67.69;;
61321;Laerm;17737;52.586;13.284;2022-09-16T13:21:20;61.01;45.05;76.24;;
61321;Laerm;17737;52.586;13.284;2022-09-16T13:23:57;58.92;46.23;66.62;;
61321;Laerm;17737;52.586;13.284;2022-09-16T13:26:38;59.40;47.39;68.48;;
61321;Laerm;17737;52.586;13.284;2022-09-16T13:29:25;61.31;47.53;72.36;;
61321;Laerm;17737;52.586;13.284;2022-09-16T13:31:53;60.47;43.35;71.61;;
61321;Laerm;17737;52.586;13.284;2022-09-16T13:34:28;60.55;45.05;72.01;;
61321;Laerm;17737;52.586;13.284;2022-09-16T13:36:56;60.13;46.22;69.23;;
61321;Laerm;17737;52.586;13.284;2022-09-16T13:39:29;60.30;45.73;69.51;;
61321;Laerm;17737;52.586;13.284;2022-09-16T13:42:09;59.53;42.72;68.85;;
61321;Laerm;17737;52.586;13.284;2022-09-16T13:44:39;60.27;44.17;71.26;;
61321;Laerm;17737;52.586;13.284;2022-09-16T13:47:16;60.11;47.29;71.53;;
61321;Laerm;17737;52.586;13.284;2022-09-16T13:49:49;69.11;52.20;89.79;;
61321;Laerm;17737;52.586;13.284;2022-09-16T13:52:20;59.86;49.66;67.88;;
61321;Laerm;17737;52.586;13.284;2022-09-16T13:54:52;58.04;45.64;67.15;;
61321;Laerm;17737;52.586;13.284;2022-09-16T13:57:48;59.93;47.29;71.92;;
61321;Laerm;17737;52.586;13.284;2022-09-16T14:00:21;59.01;43.62;67.25;;
61321;Laerm;17737;52.586;13.284;2022-09-16T14:03:10;57.38;43.54;68.15;;
61321;Laerm;17737;52.586;13.284;2022-09-16T14:06:20;60.90;50.27;71.13;;
61321;Laerm;17737;52.586;13.284;2022-09-16T14:08:57;59.37;45.23;66.16;;
61321;Laerm;17737;52.586;13.284;2022-09-16T14:11:33;60.84;44.69;72.51;;
61321;Laerm;17737;52.586;13.284;2022-09-16T14:14:05;58.98;43.47;70.40;;